Time;durP1;ratioP1;P1;durP2;ratioP2;P2;SDS_P1;SDS_P2;PMS_P1;PMS_P2;Temp;Humidity;BMP_temperature;BMP_pressure;BME280_temperature;BME280_humidity;BME280_pressure;Samples;Min_cycle;Max_cycle;Signal;HPM_P1;HPM_P2
2022/03/31 00:02:09;;;;;;;33.65;20.40;;;8.70;99.90;;;;;;5025274;28;20394;-86
2022/03/31 00:04:37;;;;;;;31.40;18.83;;;8.70;99.90;;;;;;5042574;28;20040;-84
2022/03/31 00:07:03;;;;;;;33.85;19.20;;;9.40;99.90;;;;;;5020633;28;20029;-89
2022/03/31 00:09:29;;;;;;;34.72;19.13;;;8.60;99.90;;;;;;5023356;28;20072;-86
2022/03/31 00:11:55;;;;;;;35.72;20.17;;;8.60;99.90;;;;;;5033714;28;20022;-87
2022/03/31 00:14:20;;;;;;;37.47;22.90;;;8.60;99.90;;;;;;5025404;28;20033;-86
2022/03/31 00:16:47;;;;;;;38.03;20.35;;;8.60;99.90;;;;;;5041546;28;20026;-86
2022/03/31 00:19:12;;;;;;;39.03;22.05;;;10.30;99.90;;;;;;5040429;28;20033;-87
2022/03/31 00:21:38;;;;;;;39.15;22.02;;;8.50;99.90;;;;;;5021813;28;20036;-86
2022/03/31 00:24:04;;;;;;;36.72;21.48;;;8.50;99.90;;;;;;5026460;28;20027;-88
2022/03/31 00:26:30;;;;;;;39.38;21.08;;;8.40;99.90;;;;;;5027210;28;20390;-87
2022/03/31 00:28:55;;;;;;;36.00;20.55;;;8.60;99.90;;;;;;5020583;28;20028;-86
2022/03/31 00:31:21;;;;;;;36.50;21.17;;;8.40;99.90;;;;;;5041237;28;20021;-87
2022/03/31 00:33:47;;;;;;;36.80;20.35;;;8.40;99.90;;;;;;5024726;28;20024;-84
2022/03/31 00:36:13;;;;;;;36.75;20.58;;;8.80;99.90;;;;;;5031250;28;20033;-88
2022/03/31 00:39:28;;;;;;;34.97;20.15;;;8.30;99.90;;;;;;5025465;28;20493;-88
2022/03/31 00:41:27;;;;;;;38.50;20.65;;;9.40;99.90;;;;;;5037530;28;20431;-86
2022/03/31 00:43:54;;;;;;;38.80;21.55;;;8.20;99.90;;;;;;5037578;28;20021;-83
2022/03/31 00:46:23;;;;;;;35.35;20.23;;;8.20;99.90;;;;;;5027017;28;20029;-86
2022/03/31 00:48:48;;;;;;;37.33;22.85;;;8.10;99.90;;;;;;5022930;28;20026;-87
2022/03/31 00:51:14;;;;;;;40.38;22.67;;;9.10;99.90;;;;;;5017761;28;20543;-86
2022/03/31 00:53:40;;;;;;;38.95;21.83;;;8.70;99.90;;;;;;5029989;28;20021;-86
2022/03/31 00:56:06;;;;;;;38.63;22.52;;;8.00;99.90;;;;;;5045947;28;20028;-88
2022/03/31 00:58:32;;;;;;;39.92;23.50;;;8.00;99.90;;;;;;5025829;28;20083;-88
2022/03/31 01:00:58;;;;;;;36.40;21.20;;;8.00;99.90;;;;;;5044361;28;20477;-88
2022/03/31 01:03:24;;;;;;;42.97;23.63;;;9.80;99.90;;;;;;5044322;28;20075;-87
2022/03/31 01:05:50;;;;;;;41.20;23.15;;;9.20;99.90;;;;;;5041163;28;20029;-86
2022/03/31 01:08:15;;;;;;;39.50;22.52;;;7.90;99.90;;;;;;5026811;28;20451;-84
2022/03/31 01:10:41;;;;;;;41.92;22.58;;;7.90;99.90;;;;;;5016943;28;20033;-84
2022/03/31 01:13:07;;;;;;;38.28;22.10;;;7.80;99.90;;;;;;5024180;28;20025;-87
2022/03/31 01:15:33;;;;;;;40.53;23.02;;;7.80;99.90;;;;;;5039532;28;20679;-85
2022/03/31 01:17:59;;;;;;;40.22;22.75;;;8.30;99.90;;;;;;5048967;28;20033;-89
2022/03/31 01:20:24;;;;;;;40.30;22.63;;;7.90;99.90;;;;;;5018191;28;20030;-86
2022/03/31 01:22:51;;;;;;;41.22;22.85;;;5.70;99.90;;;;;;5039059;28;20025;-84
2022/03/31 01:25:18;;;;;;;45.45;23.38;;;8.60;99.90;;;;;;5009077;28;20052;-85
2022/03/31 01:27:45;;;;;;;45.35;24.75;;;7.80;99.90;;;;;;5022916;28;20018;-85
2022/03/31 01:30:15;;;;;;;44.83;24.50;;;7.80;99.90;;;;;;5039422;28;20026;-87
2022/03/31 01:32:43;;;;;;;44.20;23.88;;;7.80;99.90;;;;;;5029989;28;20045;-87
2022/03/31 01:35:09;;;;;;;44.38;23.88;;;8.60;99.90;;;;;;5025430;28;20022;-88
2022/03/31 01:37:35;;;;;;;42.70;23.38;;;7.90;99.90;;;;;;5028116;28;20046;-89
2022/03/31 01:40:00;;;;;;;43.42;24.10;;;7.90;99.90;;;;;;5042339;28;20060;-85
2022/03/31 01:42:30;;;;;;;47.88;26.00;;;7.90;99.90;;;;;;5015705;28;20099;-89
2022/03/31 01:44:56;;;;;;;46.60;25.30;;;8.00;99.90;;;;;;5034395;28;20044;-87
2022/03/31 01:47:22;;;;;;;45.33;24.60;;;7.70;99.90;;;;;;5039905;28;20018;-89
2022/03/31 01:49:48;;;;;;;41.95;24.08;;;7.80;99.90;;;;;;5026835;28;20040;-89
2022/03/31 01:52:14;;;;;;;47.20;24.30;;;7.90;99.90;;;;;;5027838;28;20573;-88
2022/03/31 01:54:42;;;;;;;41.90;23.70;;;7.70;99.90;;;;;;5026839;28;20036;-87
2022/03/31 01:57:08;;;;;;;44.85;24.75;;;7.70;99.90;;;;;;5036677;28;20116;-85
2022/03/31 01:59:40;;;;;;;44.75;23.67;;;8.90;99.90;;;;;;5030619;28;20049;-85
2022/03/31 02:02:07;;;;;;;46.85;24.63;;;7.90;99.90;;;;;;5055434;28;20020;-85
2022/03/31 02:04:33;;;;;;;43.78;23.83;;;7.80;99.90;;;;;;5049056;28;20037;-90
2022/03/31 02:06:59;;;;;;;42.22;23.05;;;7.80;99.90;;;;;;5047335;28;20049;-86
2022/03/31 02:09:25;;;;;;;40.72;21.85;;;7.80;99.90;;;;;;5045732;28;20046;-87
2022/03/31 02:11:52;;;;;;;43.08;23.48;;;8.10;99.90;;;;;;5033315;28;20005;-86
2022/03/31 02:14:22;;;;;;;41.90;22.83;;;7.90;99.90;;;;;;5031289;28;20213;-84
2022/03/31 02:16:48;;;;;;;44.42;23.55;;;7.90;99.90;;;;;;5022948;28;20024;-85
2022/03/31 02:19:14;;;;;;;43.50;24.38;;;8.20;99.90;;;;;;5027816;28;20110;-85
2022/03/31 02:21:40;;;;;;;45.63;24.10;;;7.80;99.90;;;;;;5019076;28;20034;-87
2022/03/31 02:24:08;;;;;;;45.17;24.17;;;7.90;99.90;;;;;;5019933;28;20101;-88
2022/03/31 02:26:37;;;;;;;44.40;23.67;;;10.00;99.90;;;;;;5008632;28;20044;-89
2022/03/31 02:29:04;;;;;;;41.30;23.25;;;8.00;99.90;;;;;;5041017;28;20026;-88
2022/03/31 02:31:31;;;;;;;39.65;22.75;;;8.20;99.90;;;;;;5020182;28;20032;-86
2022/03/31 02:33:57;;;;;;;41.85;23.17;;;9.60;99.90;;;;;;5014546;28;20122;-86
2022/03/31 02:36:23;;;;;;;40.42;21.88;;;7.90;99.90;;;;;;5016546;28;20038;-86
2022/03/31 02:38:49;;;;;;;40.95;22.75;;;9.70;99.90;;;;;;5033448;28;20029;-82
2022/03/31 02:41:15;;;;;;;38.63;22.02;;;7.90;99.90;;;;;;5040660;28;20093;-85
2022/03/31 02:43:41;;;;;;;39.72;22.88;;;7.00;99.90;;;;;;5019577;28;20080;-87
2022/03/31 02:46:08;;;;;;;39.80;23.08;;;;;;;;;;5036077;28;20108;-88
2022/03/31 02:48:34;;;;;;;40.85;22.15;;;7.80;99.90;;;;;;5035897;28;20025;-87
2022/03/31 02:50:59;;;;;;;41.38;23.05;;;7.80;99.90;;;;;;5035637;28;20060;-87
2022/03/31 02:56:09;;;;;;;38.35;22.42;;;7.90;99.90;;;;;;5039193;28;20044;-86
2022/03/31 02:58:35;;;;;;;41.45;23.13;;;10.50;99.90;;;;;;5037244;28;20025;-88
2022/03/31 03:01:01;;;;;;;43.42;23.38;;;7.80;99.90;;;;;;5034798;28;20017;-86
2022/03/31 03:03:28;;;;;;;43.67;23.80;;;8.70;99.90;;;;;;5019301;28;20025;-89
2022/03/31 03:05:54;;;;;;;41.55;23.65;;;7.70;99.90;;;;;;5021099;28;20224;-88
2022/03/31 03:08:26;;;;;;;45.40;23.55;;;7.70;99.90;;;;;;5037790;28;20125;-85
2022/03/31 03:10:53;;;;;;;45.45;24.63;;;8.20;99.90;;;;;;5033380;28;20064;-87
2022/03/31 03:13:19;;;;;;;43.25;23.50;;;7.70;99.90;;;;;;5034431;28;20033;-85
2022/03/31 03:15:46;;;;;;;45.03;23.50;;;7.60;99.90;;;;;;5019742;28;20041;-88
2022/03/31 03:18:12;;;;;;;41.53;22.73;;;9.60;99.90;;;;;;5034691;28;20044;-88
2022/03/31 03:20:38;;;;;;;43.25;22.38;;;7.60;99.90;;;;;;5027841;28;20026;-87
2022/03/31 03:23:03;;;;;;;40.80;22.58;;;7.60;99.90;;;;;;5023018;28;20030;-89
2022/03/31 03:25:29;;;;;;;39.35;21.63;;;7.60;99.90;;;;;;5020716;28;20030;-84
2022/03/31 03:27:55;;;;;;;40.03;22.42;;;7.60;99.90;;;;;;5019478;28;20042;-89
2022/03/31 03:30:21;;;;;;;39.42;21.83;;;7.70;99.90;;;;;;5031463;28;20017;-89
2022/03/31 03:32:47;;;;;;;41.08;22.13;;;8.20;99.90;;;;;;5032420;28;20087;-88
2022/03/31 03:35:14;;;;;;;36.65;20.88;;;7.80;99.90;;;;;;5023554;28;20390;-86
2022/03/31 03:37:42;;;;;;;36.30;20.63;;;9.20;99.90;;;;;;5006695;28;20029;-85
2022/03/31 03:40:12;;;;;;;38.22;22.33;;;7.60;99.90;;;;;;5027057;28;20025;-88
2022/03/31 03:42:38;;;;;;;39.15;21.73;;;7.60;99.90;;;;;;5022661;28;20025;-85
2022/03/31 03:45:05;;;;;;;37.55;21.52;;;7.70;99.90;;;;;;5018295;28;20526;-89
2022/03/31 03:47:31;;;;;;;40.05;22.20;;;7.70;99.90;;;;;;5033696;28;20033;-84
2022/03/31 03:49:56;;;;;;;39.45;21.25;;;7.70;99.90;;;;;;5017259;28;20037;-86
2022/03/31 03:52:23;;;;;;;41.13;21.83;;;8.30;99.90;;;;;;5010608;28;20026;-87
2022/03/31 03:54:50;;;;;;;36.95;20.75;;;7.60;99.90;;;;;;5022120;28;20061;-89
2022/03/31 03:57:16;;;;;;;38.92;21.55;;;7.70;99.90;;;;;;5019585;28;20033;-89
2022/03/31 03:59:42;;;;;;;43.03;22.05;;;7.60;99.90;;;;;;5015205;28;20091;-89
2022/03/31 04:02:08;;;;;;;39.53;21.90;;;7.90;99.90;;;;;;5029418;28;20074;-88
2022/03/31 04:04:33;;;;;;;38.42;20.50;;;7.70;99.90;;;;;;5045611;28;20319;-87
2022/03/31 04:07:00;;;;;;;37.78;21.58;;;7.70;99.90;;;;;;5023814;28;20085;-88
2022/03/31 04:09:26;;;;;;;37.17;21.45;;;7.70;99.90;;;;;;5037761;28;20029;-87
2022/03/31 04:11:52;;;;;;;39.97;21.73;;;7.70;99.90;;;;;;5014318;28;20029;-86
2022/03/31 04:14:19;;;;;;;39.65;22.02;;;7.70;99.90;;;;;;5030607;28;20385;-89
2022/03/31 04:16:45;;;;;;;39.50;22.10;;;8.20;99.90;;;;;;5018955;28;20036;-86
2022/03/31 04:19:11;;;;;;;40.70;23.27;;;7.90;99.90;;;;;;5023516;28;20031;-88
2022/03/31 04:21:37;;;;;;;37.92;21.00;;;8.10;99.90;;;;;;5025679;28;20061;-88
2022/03/31 04:24:04;;;;;;;37.90;20.48;;;7.70;99.90;;;;;;5022126;28;20029;-90
2022/03/31 04:26:32;;;;;;;38.45;22.38;;;7.70;99.90;;;;;;5047212;28;20112;-87
2022/03/31 04:28:58;;;;;;;35.13;20.85;;;7.70;99.90;;;;;;5041997;28;20026;-86
2022/03/31 04:31:24;;;;;;;40.88;22.40;;;8.70;99.90;;;;;;5029517;28;20135;-85
2022/03/31 04:33:50;;;;;;;39.03;21.23;;;7.80;99.90;;;;;;5026123;28;20029;-87
2022/03/31 04:36:16;;;;;;;42.72;25.30;;;8.10;99.90;;;;;;5023451;28;20029;-87
2022/03/31 04:38:42;;;;;;;41.85;21.88;;;7.70;99.90;;;;;;5040542;28;20111;-86
2022/03/31 04:41:07;;;;;;;40.42;21.70;;;7.70;99.90;;;;;;5027294;28;20038;-88
2022/03/31 04:43:33;;;;;;;36.47;21.10;;;8.10;99.90;;;;;;5035684;28;20029;-87
2022/03/31 04:45:59;;;;;;;37.90;20.85;;;7.70;99.90;;;;;;5031254;28;20493;-85
2022/03/31 04:48:25;;;;;;;39.53;21.42;;;8.70;99.90;;;;;;5032207;28;20100;-88
2022/03/31 04:50:51;;;;;;;38.20;21.30;;;8.10;99.90;;;;;;5025845;28;20075;-88
2022/03/31 04:53:17;;;;;;;37.67;21.83;;;7.70;99.90;;;;;;5037249;28;20029;-85
2022/03/31 04:55:43;;;;;;;39.35;21.55;;;7.80;99.90;;;;;;5026473;28;20033;-88
2022/03/31 04:58:09;;;;;;;40.08;21.88;;;7.80;99.90;;;;;;5023729;28;20063;-84
2022/03/31 05:00:35;;;;;;;36.55;20.48;;;7.70;99.90;;;;;;5039109;28;20249;-89
2022/03/31 05:03:01;;;;;;;39.28;21.73;;;7.90;99.90;;;;;;5025956;28;20025;-89
2022/03/31 05:05:27;;;;;;;38.95;22.13;;;7.80;99.90;;;;;;5023509;28;20029;-89
2022/03/31 05:07:54;;;;;;;38.33;21.27;;;7.70;99.90;;;;;;5003300;28;20110;-87
2022/03/31 05:10:20;;;;;;;41.50;22.35;;;7.80;99.90;;;;;;5040597;28;20424;-83
2022/03/31 05:12:46;;;;;;;42.25;22.52;;;7.80;99.90;;;;;;5027158;28;20030;-85
2022/03/31 05:15:14;;;;;;;39.08;22.30;;;7.70;99.90;;;;;;5015892;28;20053;-89
2022/03/31 05:17:40;;;;;;;36.47;21.02;;;7.70;99.90;;;;;;5023252;28;20030;-85
2022/03/31 05:20:11;;;;;;;41.05;22.70;;;8.80;99.90;;;;;;5038487;28;20544;-86
2022/03/31 05:22:38;;;;;;;40.47;21.88;;;7.60;99.90;;;;;;5025826;28;20021;-85
2022/03/31 05:25:07;;;;;;;40.78;22.58;;;7.60;99.90;;;;;;5038711;28;20029;-83
2022/03/31 05:27:33;;;;;;;39.10;21.83;;;7.60;99.90;;;;;;5024699;28;20398;-87
2022/03/31 05:29:59;;;;;;;39.42;21.90;;;7.60;99.90;;;;;;5021726;28;20447;-86
2022/03/31 05:32:24;;;;;;;41.58;23.38;;;7.60;99.90;;;;;;5020209;28;20040;-88
2022/03/31 05:34:51;;;;;;;42.20;22.73;;;7.70;99.90;;;;;;5015303;28;20138;-85
2022/03/31 05:37:17;;;;;;;45.92;21.85;;;7.60;99.90;;;;;;5033757;28;20033;-88
2022/03/31 05:39:43;;;;;;;40.25;21.63;;;7.80;99.90;;;;;;5017821;28;20105;-85
2022/03/31 05:42:09;;;;;;;38.45;20.65;;;7.60;99.90;;;;;;5021868;28;20053;-87
2022/03/31 05:44:35;;;;;;;40.97;22.67;;;9.00;99.90;;;;;;5040410;28;20026;-88
2022/03/31 05:47:01;;;;;;;41.45;22.05;;;7.70;99.90;;;;;;5025204;28;20030;-87
2022/03/31 05:49:27;;;;;;;39.78;21.90;;;9.40;99.90;;;;;;5038205;28;20111;-88
2022/03/31 05:51:52;;;;;;;39.75;22.40;;;7.70;99.90;;;;;;5025548;28;20482;-89
2022/03/31 05:54:18;;;;;;;42.90;24.02;;;9.10;99.90;;;;;;5035289;28;20033;-87
2022/03/31 05:56:44;;;;;;;38.30;22.73;;;7.70;99.90;;;;;;5026653;28;20013;-85
2022/03/31 05:59:10;;;;;;;39.20;22.45;;;7.70;99.90;;;;;;5055918;28;20021;-84
2022/03/31 06:01:36;;;;;;;43.35;24.20;;;7.70;99.90;;;;;;5045867;28;20028;-86
2022/03/31 06:04:02;;;;;;;41.35;24.25;;;7.80;99.90;;;;;;5035140;28;20014;-85
2022/03/31 06:06:28;;;;;;;44.83;24.55;;;7.70;99.90;;;;;;5041547;28;20030;-86
2022/03/31 06:08:54;;;;;;;44.13;23.85;;;7.70;99.90;;;;;;5067000;28;20009;-88
2022/03/31 06:11:19;;;;;;;45.80;24.65;;;7.70;99.90;;;;;;5034949;28;20026;-87
2022/03/31 06:13:45;;;;;;;46.17;25.52;;;7.60;99.90;;;;;;5041203;28;20039;-86
2022/03/31 06:16:11;;;;;;;43.83;24.33;;;7.60;99.90;;;;;;5023191;28;20041;-87
2022/03/31 06:18:38;;;;;;;40.13;23.60;;;7.70;99.90;;;;;;5017370;28;20029;-86
2022/03/31 06:21:04;;;;;;;44.80;24.17;;;8.40;99.90;;;;;;5038475;28;20025;-88
2022/03/31 06:23:30;;;;;;;41.00;23.48;;;7.60;99.90;;;;;;5030709;28;20029;-84
2022/03/31 06:25:56;;;;;;;44.45;25.92;;;8.10;99.90;;;;;;5022456;28;20041;-88
2022/03/31 06:28:22;;;;;;;43.40;22.88;;;7.70;99.90;;;;;;5025875;28;20045;-84
2022/03/31 06:30:48;;;;;;;40.63;23.42;;;8.00;99.90;;;;;;5035188;28;20025;-87
2022/03/31 06:33:18;;;;;;;40.72;23.25;;;7.80;99.90;;;;;;5019012;28;20049;-89
2022/03/31 06:35:44;;;;;;;43.00;24.75;;;7.80;99.90;;;;;;5029019;28;20029;-85
2022/03/31 06:38:11;;;;;;;42.90;24.50;;;7.70;99.90;;;;;;5012404;28;20029;-88
2022/03/31 06:40:38;;;;;;;41.75;23.52;;;7.60;99.90;;;;;;5022730;28;20087;-82
2022/03/31 06:43:07;;;;;;;42.08;23.63;;;8.20;99.90;;;;;;5028449;28;20390;-85
2022/03/31 06:45:34;;;;;;;43.35;25.08;;;7.60;99.90;;;;;;5020568;28;20022;-87
2022/03/31 06:48:01;;;;;;;44.67;23.48;;;7.70;99.90;;;;;;5022263;28;20386;-86
2022/03/31 06:50:32;;;;;;;44.92;24.15;;;7.60;99.90;;;;;;5018069;28;20571;-85
2022/03/31 06:52:58;;;;;;;42.10;23.92;;;7.50;99.90;;;;;;5012423;28;20025;-90
2022/03/31 06:55:25;;;;;;;42.72;24.13;;;7.70;99.90;;;;;;5056112;23;20058;-89
2022/03/31 06:57:50;;;;;;;43.42;24.02;;;7.50;99.90;;;;;;5005196;28;20026;-90
2022/03/31 07:00:20;;;;;;;41.25;24.35;;;9.30;99.90;;;;;;5011138;28;20022;-85
2022/03/31 07:02:59;;;;;;;39.30;22.58;;;7.70;99.90;;;;;;5020160;28;20014;-90
2022/03/31 07:05:27;;;;;;;40.63;22.98;;;7.60;99.90;;;;;;5041823;23;20050;-84
2022/03/31 07:07:56;;;;;;;42.72;24.23;;;7.70;99.90;;;;;;4986434;28;20112;-84
2022/03/31 07:10:22;;;;;;;47.45;23.90;;;8.30;99.90;;;;;;4967878;28;20186;-85
2022/03/31 07:12:49;;;;;;;43.70;24.55;;;7.60;99.90;;;;;;4997926;28;20037;-83
2022/03/31 07:15:15;;;;;;;43.65;22.70;;;7.50;99.90;;;;;;4977180;28;20125;-81
2022/03/31 07:17:41;;;;;;;44.17;23.33;;;7.50;99.90;;;;;;4978883;28;20113;-79
2022/03/31 07:20:08;;;;;;;45.28;24.33;;;8.80;99.90;;;;;;4997571;28;20447;-84
2022/03/31 07:22:35;;;;;;;44.90;24.13;;;7.40;99.90;;;;;;4982959;28;20604;-83
2022/03/31 07:25:03;;;;;;;46.33;24.38;;;7.50;99.90;;;;;;4993614;28;20034;-81
2022/03/31 07:27:29;;;;;;;42.28;24.00;;;7.40;99.90;;;;;;4978712;28;20042;-82
2022/03/31 07:29:55;;;;;;;47.10;25.05;;;7.40;99.90;;;;;;4964788;28;20101;-85
2022/03/31 07:32:21;;;;;;;42.55;24.20;;;7.40;99.90;;;;;;4976592;28;20114;-85
2022/03/31 07:34:47;;;;;;;41.72;23.80;;;7.40;99.90;;;;;;4996391;28;20047;-87
2022/03/31 07:37:13;;;;;;;44.25;23.67;;;7.40;99.90;;;;;;4982599;28;20022;-85
2022/03/31 07:39:45;;;;;;;42.80;23.90;;;8.80;99.90;;;;;;4982172;28;20037;-85
2022/03/31 07:42:11;;;;;;;45.97;22.85;;;7.50;99.90;;;;;;4980751;28;20089;-84
2022/03/31 07:44:40;;;;;;;42.53;24.15;;;7.40;99.90;;;;;;4982434;28;20080;-90
2022/03/31 07:47:07;;;;;;;42.42;22.70;;;7.40;99.90;;;;;;4996895;28;20512;-81
2022/03/31 07:49:32;;;;;;;40.70;22.75;;;7.40;99.90;;;;;;4986370;28;20979;-84
2022/03/31 07:51:58;;;;;;;41.92;23.17;;;7.50;99.90;;;;;;4985986;28;20026;-85
2022/03/31 07:54:24;;;;;;;43.05;23.38;;;8.10;99.90;;;;;;4985441;28;20040;-87
2022/03/31 07:56:50;;;;;;;41.97;21.90;;;7.50;99.90;;;;;;4986651;28;20033;-85
2022/03/31 07:59:23;;;;;;;41.25;22.17;;;7.00;99.90;;;;;;5005279;28;20088;-83
2022/03/31 08:01:52;;;;;;;45.28;23.60;;;7.60;99.90;;;;;;4984275;28;20329;-82
2022/03/31 08:04:18;;;;;;;45.05;24.60;;;8.10;99.90;;;;;;4989693;28;20049;-83
2022/03/31 08:06:43;;;;;;;39.22;21.92;;;7.50;99.90;;;;;;5001143;28;20034;-85
2022/03/31 08:09:12;;;;;;;38.22;22.63;;;7.50;99.90;;;;;;4992526;28;20451;-83
2022/03/31 08:11:38;;;;;;;39.13;21.73;;;7.90;99.90;;;;;;4975180;28;21151;-84
2022/03/31 08:14:07;;;;;;;38.50;21.35;;;8.70;99.90;;;;;;5007770;28;20506;-85
2022/03/31 08:16:33;;;;;;;41.17;22.38;;;7.80;99.90;;;;;;4988669;28;20084;-84
2022/03/31 08:19:01;;;;;;;39.00;22.50;;;7.50;99.90;;;;;;4995884;28;20011;-84
2022/03/31 08:21:27;;;;;;;39.95;21.23;;;7.40;99.90;;;;;;5010633;28;20053;-83
2022/03/31 08:23:53;;;;;;;39.72;23.05;;;6.00;99.90;;;;;;4994302;28;20208;-86
2022/03/31 08:26:19;;;;;;;41.42;22.60;;;7.40;99.90;;;;;;4992677;28;20057;-82
2022/03/31 08:28:45;;;;;;;36.20;20.95;;;7.90;99.90;;;;;;4986165;28;20066;-83
2022/03/31 08:31:10;;;;;;;43.20;22.63;;;7.60;99.90;;;;;;4982139;28;20056;-79
2022/03/31 08:33:36;;;;;;;40.78;21.33;;;7.60;99.90;;;;;;4988729;28;20026;-80
2022/03/31 08:36:05;;;;;;;43.70;23.52;;;7.70;99.90;;;;;;4993389;28;20022;-84
2022/03/31 08:38:31;;;;;;;43.13;22.40;;;7.70;99.90;;;;;;4985022;28;20046;-84
2022/03/31 08:41:02;;;;;;;45.28;23.00;;;7.70;99.90;;;;;;4981137;28;20030;-83
2022/03/31 08:43:30;;;;;;;41.13;21.42;;;8.70;99.90;;;;;;4983680;28;20035;-84
2022/03/31 08:45:56;;;;;;;39.65;20.40;;;7.80;99.90;;;;;;4973251;28;20040;-84
2022/03/31 08:48:28;;;;;;;38.05;21.52;;;7.80;99.90;;;;;;4988961;28;20022;-83
2022/03/31 08:50:54;;;;;;;40.35;21.23;;;8.00;99.90;;;;;;4996327;28;20057;-83
2022/03/31 08:53:20;;;;;;;38.22;19.73;;;7.90;99.90;;;;;;5004691;28;20030;-82
2022/03/31 08:55:45;;;;;;;35.42;21.27;;;8.10;99.90;;;;;;5004099;28;20094;-82
2022/03/31 08:58:11;;;;;;;36.63;20.75;;;9.30;99.90;;;;;;5014884;28;20053;-82
2022/03/31 09:00:37;;;;;;;34.40;19.85;;;8.40;99.90;;;;;;5008092;28;20596;-81
2022/03/31 09:03:16;;;;;;;36.45;19.85;;;8.50;99.90;;;;;;4998689;28;20105;-80
2022/03/31 09:05:54;;;;;;;36.97;21.30;;;8.50;99.90;;;;;;5022860;28;20048;-82
2022/03/31 09:08:20;;;;;;;34.47;20.95;;;8.60;99.90;;;;;;5019769;28;20038;-85
2022/03/31 09:10:53;;;;;;;32.40;19.70;;;9.50;99.90;;;;;;5012804;28;20025;-80
2022/03/31 09:13:23;;;;;;;35.97;20.02;;;8.80;99.90;;;;;;5012445;28;20014;-82
2022/03/31 09:15:58;;;;;;;33.08;19.88;;;8.90;99.90;;;;;;5015389;28;20022;-85
2022/03/31 09:18:26;;;;;;;36.55;20.20;;;8.90;99.90;;;;;;5013464;28;20018;-86
2022/03/31 09:20:55;;;;;;;32.45;18.52;;;8.90;99.90;;;;;;5013745;28;20014;-81
2022/03/31 09:23:29;;;;;;;34.10;19.90;;;7.70;99.90;;;;;;5011097;28;20061;-87
2022/03/31 09:26:16;;;;;;;31.55;18.83;;;9.00;99.90;;;;;;5005531;28;20098;-82
2022/03/31 09:28:44;;;;;;;32.55;18.77;;;9.10;99.90;;;;;;4992716;28;20120;-85
2022/03/31 09:31:10;;;;;;;29.95;18.05;;;9.20;99.90;;;;;;5004530;28;20026;-88
2022/03/31 09:33:37;;;;;;;31.80;18.98;;;9.10;99.90;;;;;;4986702;28;20021;-83
2022/03/31 09:36:10;;;;;;;36.75;20.90;;;9.00;99.90;;;;;;4981244;28;20483;-82
2022/03/31 09:38:37;;;;;;;32.88;19.80;;;9.00;99.90;;;;;;4986468;28;20034;-88
2022/03/31 09:41:40;;;;;;;32.22;20.15;;;11.00;99.90;;;;;;4984571;28;20022;-84
2022/03/31 09:44:08;;;;;;;28.85;17.77;;;9.10;99.90;;;;;;4892898;29;20054;-86
2022/03/31 09:46:38;;;;;;;30.25;18.00;;;9.20;99.90;;;;;;4981183;28;20660;-83
2022/03/31 09:49:16;;;;;;;29.85;17.90;;;9.10;99.90;;;;;;4983156;28;20030;-84
2022/03/31 09:51:45;;;;;;;27.95;16.77;;;9.00;99.90;;;;;;4985730;28;20036;-87
2022/03/31 09:54:15;;;;;;;24.33;14.85;;;9.10;99.90;;;;;;4983440;28;20696;-86
2022/03/31 09:56:41;;;;;;;25.08;14.98;;;9.00;99.90;;;;;;5001200;28;20466;-80
2022/03/31 09:59:09;;;;;;;25.95;16.25;;;9.10;99.90;;;;;;4999441;28;20073;-83
2022/03/31 10:01:38;;;;;;;25.48;15.38;;;9.10;99.90;;;;;;4986608;28;20078;-85
2022/03/31 10:04:06;;;;;;;20.10;13.25;;;9.20;99.90;;;;;;5001794;28;20034;-82
2022/03/31 10:06:41;;;;;;;20.50;13.20;;;9.50;99.90;;;;;;4984103;28;20366;-83
2022/03/31 10:09:09;;;;;;;20.70;12.35;;;8.30;99.90;;;;;;4996990;28;20105;-82
2022/03/31 10:11:39;;;;;;;19.10;11.48;;;9.40;99.90;;;;;;4985900;28;20703;-82
2022/03/31 10:14:34;;;;;;;18.52;11.32;;;9.30;99.90;;;;;;4977123;28;20061;-86
2022/03/31 10:17:10;;;;;;;19.52;12.50;;;9.40;99.90;;;;;;4995546;28;20049;-84
2022/03/31 10:19:38;;;;;;;19.05;12.18;;;9.20;99.90;;;;;;4986161;28;20103;-88
2022/03/31 10:24:41;;;;;;;19.55;11.88;;;9.20;99.90;;;;;;4980744;28;20026;-83
2022/03/31 10:25:09;;;;;;;18.88;11.43;;;9.30;99.90;;;;;;4996633;28;20038;-84
2022/03/31 10:27:40;;;;;;;19.15;12.38;;;9.50;99.90;;;;;;4978060;28;20069;-85
2022/03/31 10:30:11;;;;;;;18.88;12.38;;;9.50;99.90;;;;;;4979425;28;20026;-85
2022/03/31 10:32:53;;;;;;;;;;;9.70;99.90;;;;;;4981338;28;20118;-82
2022/03/31 10:35:34;;;;;;;21.35;13.40;;;10.20;99.90;;;;;;4977179;28;20084;-83
2022/03/31 10:38:11;;;;;;;19.65;11.23;;;9.90;99.90;;;;;;4986226;28;20042;-83
2022/03/31 10:40:40;;;;;;;19.85;11.88;;;10.00;99.90;;;;;;4979554;28;20085;-85
2022/03/31 10:43:06;;;;;;;21.80;12.57;;;10.00;99.90;;;;;;4994753;28;20116;-82
2022/03/31 10:45:42;;;;;;;19.88;12.18;;;9.90;99.90;;;;;;4995958;28;20056;-85
2022/03/31 10:48:20;;;;;;;19.20;11.60;;;9.80;99.90;;;;;;4983314;28;20306;-82
2022/03/31 10:50:48;;;;;;;20.50;13.65;;;9.60;99.90;;;;;;4983151;28;20022;-86
2022/03/31 10:53:14;;;;;;;21.48;13.38;;;9.50;99.90;;;;;;4995582;28;20026;-82
2022/03/31 10:55:48;;;;;;;20.40;12.07;;;9.70;99.90;;;;;;4983284;28;20030;-88
2022/03/31 10:58:25;;;;;;;18.55;11.73;;;9.30;99.90;;;;;;4979909;28;20091;-82
2022/03/31 11:01:12;;;;;;;17.17;11.50;;;9.80;99.90;;;;;;4975740;28;20044;-83
2022/03/31 11:03:38;;;;;;;17.63;11.05;;;10.10;99.90;;;;;;4978312;28;20060;-87
2022/03/31 11:06:11;;;;;;;16.60;10.77;;;10.10;99.90;;;;;;4995625;28;20054;-87
2022/03/31 11:08:42;;;;;;;18.50;11.52;;;10.30;99.90;;;;;;4977916;28;20329;-83
2022/03/31 11:11:08;;;;;;;18.75;12.13;;;10.20;99.90;;;;;;4985221;28;20033;-85
2022/03/31 11:13:37;;;;;;;20.70;12.02;;;10.20;99.90;;;;;;5000648;28;20034;-84
2022/03/31 11:16:05;;;;;;;22.95;13.05;;;10.30;99.90;;;;;;4992036;28;20030;-87
2022/03/31 11:18:33;;;;;;;18.30;10.95;;;10.10;99.90;;;;;;4997132;28;20688;-86
2022/03/31 11:21:01;;;;;;;18.38;11.75;;;10.30;99.90;;;;;;4996425;28;20053;-84
2022/03/31 11:23:29;;;;;;;19.30;11.73;;;10.30;99.90;;;;;;4993935;28;20124;-87
2022/03/31 11:25:56;;;;;;;19.27;11.93;;;10.20;99.90;;;;;;4993365;28;20375;-84
2022/03/31 11:28:22;;;;;;;16.90;10.43;;;10.40;99.90;;;;;;4990418;28;20486;-85
2022/03/31 11:30:49;;;;;;;19.40;12.50;;;10.30;99.90;;;;;;4997687;28;20056;-82
2022/03/31 11:33:16;;;;;;;21.15;11.15;;;10.10;99.90;;;;;;4999190;28;20037;-86
2022/03/31 11:35:43;;;;;;;17.10;10.75;;;10.20;99.90;;;;;;4998603;28;20251;-83
2022/03/31 11:38:17;;;;;;;16.48;10.43;;;10.30;99.90;;;;;;5023598;28;20090;-83
2022/03/31 11:40:45;;;;;;;18.27;11.32;;;10.20;99.90;;;;;;4997945;28;20045;-83
2022/03/31 11:43:14;;;;;;;16.92;10.48;;;10.10;99.90;;;;;;4996793;28;20038;-87
2022/03/31 11:45:45;;;;;;;16.40;10.25;;;10.20;99.90;;;;;;4989306;28;20034;-83
2022/03/31 11:48:23;;;;;;;17.10;10.95;;;10.10;99.90;;;;;;4995690;28;20031;-85
2022/03/31 11:50:52;;;;;;;17.50;11.02;;;10.10;99.90;;;;;;4999627;28;20032;-83
2022/03/31 11:53:19;;;;;;;17.27;10.75;;;9.80;99.90;;;;;;5000510;28;20565;-85
2022/03/31 11:56:09;;;;;;;21.58;13.02;;;9.70;99.90;;;;;;4999486;28;20033;-85
2022/03/31 11:58:48;;;;;;;20.33;12.75;;;9.80;99.90;;;;;;5011222;28;20103;-84
2022/03/31 12:01:20;;;;;;;22.23;12.27;;;9.70;99.90;;;;;;4991275;28;20128;-83
2022/03/31 12:03:46;;;;;;;21.23;13.57;;;9.80;99.90;;;;;;5012753;28;20378;-81
2022/03/31 12:06:13;;;;;;;20.42;12.45;;;9.80;99.90;;;;;;5009061;28;20030;-87
2022/03/31 12:08:40;;;;;;;20.00;12.50;;;9.50;99.90;;;;;;4997850;28;20025;-88
2022/03/31 12:11:07;;;;;;;20.80;12.93;;;9.70;99.90;;;;;;5013484;28;20021;-85
2022/03/31 12:13:50;;;;;;;22.83;13.07;;;9.80;99.90;;;;;;4996652;28;20026;-87
2022/03/31 12:16:15;;;;;;;20.20;13.20;;;9.90;99.90;;;;;;5015715;28;20434;-86
2022/03/31 12:18:43;;;;;;;20.15;12.60;;;9.90;99.90;;;;;;5018106;28;20282;-88
2022/03/31 12:21:10;;;;;;;19.38;12.93;;;9.90;99.90;;;;;;4995721;28;20057;-86
2022/03/31 12:23:43;;;;;;;22.02;13.88;;;9.90;99.90;;;;;;5001388;28;20030;-82
2022/03/31 12:26:18;;;;;;;22.60;14.07;;;9.80;99.90;;;;;;4999239;28;20030;-84
2022/03/31 12:28:45;;;;;;;23.98;13.75;;;9.90;99.90;;;;;;4996713;28;20062;-84
2022/03/31 12:31:33;;;;;;;21.65;13.82;;;10.00;99.90;;;;;;4995177;28;20035;-87
2022/03/31 12:33:59;;;;;;;20.80;13.10;;;9.80;99.90;;;;;;5010872;28;20034;-87
2022/03/31 12:36:32;;;;;;;22.20;13.65;;;9.80;99.90;;;;;;4996507;28;20084;-86
2022/03/31 12:38:59;;;;;;;20.45;12.50;;;9.80;99.90;;;;;;4994863;28;20041;-85
2022/03/31 12:41:35;;;;;;;20.70;13.48;;;9.80;99.90;;;;;;4997823;28;20033;-83
2022/03/31 12:44:05;;;;;;;23.83;13.98;;;9.80;99.90;;;;;;5008109;28;20026;-82